PWSweather.com
Personal Weather Stations
Station Observations
KCOBLACK1
Chalet Park, Black Hawk, CO 80422

Chalet ParkBlack Hawk, CO 80422

Lat: 39.8294, Lon: -105.48

Elevation: 9370

Station Type: Vantage Pro2

http://www.oscaranddeb.com/weather

High Low Average
Temperature 44.1°F6.7°F 27.4°F-2.6°F 34.4°F1.3°F
Dew Point 23.2°F-4.9°F 4.9°F-15.1°F 13.3°F-10.4°F
Winds 35.0 mph WSW56.3 mph WSW Calm Calm 12.0 mph 19.3 mph
Wind Gusts 51.0 mph82.1 mph 3.0 mph4.8 mph 23.8 mph38.3 mph
Humidity 73% 27% 43%
Pressure 29.97 in1014.90 in 29.43 in996.60 in -
Precipitation 0.00 in0.00 in - -
Hour Temp Dew Point Humidity Winds Wind Gusts Pressure Precip Precip Rate Daily Precip Total
12:00 AM 27.4°F-2.6°C 8.3°F-13.2°C 44% 4.0 mph SSW6.4 kmh SSW 6.0 mph9.7 kmh 29.97 in1014.9 mb 0.00 in0.0 mm 0.00 in/hr0.0 mm/hr 0.01 in0.3 mm
12:05 AM 27.5°F-2.5°C 8.4°F-13.1°C 44% 4.0 mph SW6.4 kmh SW 9.0 mph14.5 kmh 29.97 in1014.9 mb 0.00 in0.0 mm 0.00 in/hr0.0 mm/hr 0.00 in0.0 mm
12:10 AM 27.6°F-2.4°C 8.5°F-13.1°C 44% 2.0 mph SW3.2 kmh SW 6.0 mph9.7 kmh 29.97 in1014.9 mb 0.00 in0.0 mm 0.00 in/hr0.0 mm/hr 0.00 in0.0 mm
12:15 AM 27.6°F-2.4°C 8.0°F-13.3°C 43% 3.0 mph SSW4.8 kmh SSW 7.0 mph11.3 kmh 29.97 in1014.9 mb 0.00 in0.0 mm 0.00 in/hr0.0 mm/hr 0.00 in0.0 mm
12:20 AM 27.9°F-2.3°C 8.3°F-13.2°C 43% 7.0 mph S11.3 kmh S 9.0 mph14.5 kmh 29.97 in1014.9 mb 0.00 in0.0 mm 0.00 in/hr0.0 mm/hr 0.00 in0.0 mm
12:25 AM 28.3°F-2.1°C 8.1°F-13.3°C 42% 2.0 mph WSW3.2 kmh WSW 10.0 mph16.1 kmh 29.97 in1014.9 mb 0.00 in0.0 mm 0.00 in/hr0.0 mm/hr 0.00 in0.0 mm
12:30 AM 28.4°F-2.0°C 8.2°F-13.2°C 42% 10.0 mph SW16.1 kmh SW 10.0 mph16.1 kmh 29.97 in1014.9 mb 0.00 in0.0 mm 0.00 in/hr0.0 mm/hr 0.00 in0.0 mm
12:35 AM 28.9°F-1.7°C 8.1°F-13.3°C 41% 6.0 mph SW9.7 kmh SW 10.0 mph16.1 kmh 29.96 in1014.6 mb 0.00 in0.0 mm 0.00 in/hr0.0 mm/hr 0.00 in0.0 mm
12:40 AM 29.2°F-1.6°C 8.4°F-13.1°C 41% 6.0 mph SW9.7 kmh SW 11.0 mph17.7 kmh 29.96 in1014.6 mb 0.00 in0.0 mm 0.00 in/hr0.0 mm/hr 0.00 in0.0 mm
12:45 AM 29.2°F-1.6°C 7.9°F-13.4°C 40% 7.0 mph SW11.3 kmh SW 11.0 mph17.7 kmh 29.96 in1014.6 mb 0.00 in0.0 mm 0.00 in/hr0.0 mm/hr 0.00 in0.0 mm
12:50 AM 29.3°F-1.5°C 8.0°F-13.3°C 40% 7.0 mph SW11.3 kmh SW 10.0 mph16.1 kmh 29.96 in1014.6 mb 0.00 in0.0 mm 0.00 in/hr0.0 mm/hr 0.00 in0.0 mm
12:55 AM 29.3°F-1.5°C 8.0°F-13.3°C 40% 5.0 mph SW8.0 kmh SW 10.0 mph16.1 kmh 29.95 in1014.2 mb 0.00 in0.0 mm 0.00 in/hr0.0 mm/hr 0.00 in0.0 mm
01:00 AM 29.2°F-1.6°C 7.9°F-13.4°C 40% 7.0 mph SW11.3 kmh SW 11.0 mph17.7 kmh 29.95 in1014.2 mb 0.00 in0.0 mm 0.00 in/hr0.0 mm/hr 0.00 in0.0 mm
01:05 AM 29.3°F-1.5°C 7.4°F-13.7°C 39% 6.0 mph SW9.7 kmh SW 11.0 mph17.7 kmh 29.94 in1013.9 mb 0.00 in0.0 mm 0.00 in/hr0.0 mm/hr 0.00 in0.0 mm
01:10 AM 29.5°F-1.4°C 7.6°F-13.6°C 39% 12.0 mph SW19.3 kmh SW 14.0 mph22.5 kmh 29.94 in1013.9 mb 0.00 in0.0 mm 0.00 in/hr0.0 mm/hr 0.00 in0.0 mm
01:15 AM 29.2°F-1.6°C 7.9°F-13.4°C 40% 5.0 mph WSW8.0 kmh WSW 11.0 mph17.7 kmh 29.93 in1013.5 mb 0.00 in0.0 mm 0.00 in/hr0.0 mm/hr 0.00 in0.0 mm
01:20 AM 29.1°F-1.6°C 7.8°F-13.4°C 40% 4.0 mph WSW6.4 kmh WSW 15.0 mph24.1 kmh 29.93 in1013.5 mb 0.00 in0.0 mm 0.00 in/hr0.0 mm/hr 0.00 in0.0 mm
01:25 AM 29.0°F-1.7°C 7.7°F-13.5°C 40% 7.0 mph SW11.3 kmh SW 10.0 mph16.1 kmh 29.93 in1013.5 mb 0.00 in0.0 mm 0.00 in/hr0.0 mm/hr 0.00 in0.0 mm
01:30 AM 29.1°F-1.6°C 7.8°F-13.4°C 40% 6.0 mph SW9.7 kmh SW 13.0 mph20.9 kmh 29.92 in1013.2 mb 0.00 in0.0 mm 0.00 in/hr0.0 mm/hr 0.00 in0.0 mm
01:35 AM 29.2°F-1.6°C 7.9°F-13.4°C 40% 7.0 mph SW11.3 kmh SW 16.0 mph25.7 kmh 29.92 in1013.2 mb 0.00 in0.0 mm 0.00 in/hr0.0 mm/hr 0.00 in0.0 mm
01:40 AM 29.8°F-1.2°C 7.8°F-13.4°C 39% 15.0 mph SW24.1 kmh SW 20.0 mph32.2 kmh 29.92 in1013.2 mb 0.00 in0.0 mm 0.00 in/hr0.0 mm/hr 0.00 in0.0 mm
01:45 AM 30.1°F-1.1°C 7.5°F-13.6°C 38% 11.0 mph SW17.7 kmh SW 18.0 mph29.0 kmh 29.91 in1012.9 mb 0.00 in0.0 mm 0.00 in/hr0.0 mm/hr 0.00 in0.0 mm
01:50 AM 30.3°F-0.9°C 7.7°F-13.5°C 38% 14.0 mph SSW22.5 kmh SSW 21.0 mph33.8 kmh 29.91 in1012.9 mb 0.00 in0.0 mm 0.00 in/hr0.0 mm/hr 0.00 in0.0 mm
01:55 AM 30.2°F-1.0°C 7.6°F-13.6°C 38% 12.0 mph SSW19.3 kmh SSW 20.0 mph32.2 kmh 29.91 in1012.9 mb 0.00 in0.0 mm 0.00 in/hr0.0 mm/hr 0.00 in0.0 mm
02:00 AM 29.9°F-1.2°C 7.4°F-13.7°C 38% 9.0 mph SW14.5 kmh SW 14.0 mph22.5 kmh 29.91 in1012.9 mb 0.00 in0.0 mm 0.00 in/hr0.0 mm/hr 0.00 in0.0 mm
02:05 AM 29.6°F-1.3°C 7.7°F-13.5°C 39% 3.0 mph WSW4.8 kmh WSW 17.0 mph27.4 kmh 29.90 in1012.5 mb 0.00 in0.0 mm 0.00 in/hr0.0 mm/hr 0.00 in0.0 mm
02:10 AM 29.0°F-1.7°C 7.7°F-13.5°C 40% 9.0 mph WSW14.5 kmh WSW 15.0 mph24.1 kmh 29.90 in1012.5 mb 0.00 in0.0 mm 0.00 in/hr0.0 mm/hr 0.00 in0.0 mm
02:15 AM 28.6°F-1.9°C 7.3°F-13.7°C 40% 10.0 mph SW16.1 kmh SW 13.0 mph20.9 kmh 29.90 in1012.5 mb 0.00 in0.0 mm 0.00 in/hr0.0 mm/hr 0.00 in0.0 mm
02:20 AM 28.6°F-1.9°C 7.3°F-13.7°C 40% 6.0 mph W9.7 kmh W 19.0 mph30.6 kmh 29.89 in1012.2 mb 0.00 in0.0 mm 0.00 in/hr0.0 mm/hr 0.00 in0.0 mm
02:25 AM 29.4°F-1.4°C 6.3°F-14.3°C 37% 11.0 mph SW17.7 kmh SW 23.0 mph37.0 kmh 29.88 in1011.9 mb 0.00 in0.0 mm 0.00 in/hr0.0 mm/hr 0.00 in0.0 mm
02:30 AM 30.6°F-0.8°C 6.2°F-14.3°C 35% 22.0 mph WSW35.4 kmh WSW 26.0 mph41.8 kmh 29.88 in1011.9 mb 0.00 in0.0 mm 0.00 in/hr0.0 mm/hr 0.00 in0.0 mm
02:35 AM 31.5°F-0.3°C 5.7°F-14.6°C 33% 12.0 mph WSW19.3 kmh WSW 29.0 mph46.7 kmh 29.88 in1011.9 mb 0.00 in0.0 mm 0.00 in/hr0.0 mm/hr 0.00 in0.0 mm
02:40 AM 32.1°F0.1°C 5.6°F-14.7°C 32% 22.0 mph WSW35.4 kmh WSW 27.0 mph43.5 kmh 29.87 in1011.5 mb 0.00 in0.0 mm 0.00 in/hr0.0 mm/hr 0.00 in0.0 mm
02:45 AM 32.7°F0.4°C 6.1°F-14.4°C 32% 21.0 mph W33.8 kmh W 34.0 mph54.7 kmh 29.86 in1011.2 mb 0.00 in0.0 mm 0.00 in/hr0.0 mm/hr 0.00 in0.0 mm
02:50 AM 33.2°F0.7°C 5.8°F-14.6°C 31% 29.0 mph SW46.7 kmh SW 37.0 mph59.5 kmh 29.86 in1011.2 mb 0.00 in0.0 mm 0.00 in/hr0.0 mm/hr 0.00 in0.0 mm
02:55 AM 33.3°F0.7°C 5.9°F-14.5°C 31% 23.0 mph WSW37.0 kmh WSW 34.0 mph54.7 kmh 29.86 in1011.2 mb 0.00 in0.0 mm 0.00 in/hr0.0 mm/hr 0.00 in0.0 mm
03:00 AM 33.5°F0.8°C 5.4°F-14.8°C 30% 11.0 mph W17.7 kmh W 33.0 mph53.1 kmh 29.85 in1010.8 mb 0.00 in0.0 mm 0.00 in/hr0.0 mm/hr 0.00 in0.0 mm
03:05 AM 33.4°F0.8°C 6.0°F-14.4°C 31% 21.0 mph WSW33.8 kmh WSW 30.0 mph48.3 kmh 29.86 in1011.2 mb 0.00 in0.0 mm 0.00 in/hr0.0 mm/hr 0.00 in0.0 mm
03:10 AM 33.7°F0.9°C 5.6°F-14.7°C 30% 20.0 mph SSW32.2 kmh SSW 36.0 mph57.9 kmh 29.86 in1011.2 mb 0.00 in0.0 mm 0.00 in/hr0.0 mm/hr 0.00 in0.0 mm
03:15 AM 33.6°F0.9°C 5.5°F-14.7°C 30% 22.0 mph WSW35.4 kmh WSW 36.0 mph57.9 kmh 29.86 in1011.2 mb 0.00 in0.0 mm 0.00 in/hr0.0 mm/hr 0.00 in0.0 mm
03:20 AM 34.1°F1.2°C 5.2°F-14.9°C 29% 20.0 mph W32.2 kmh W 32.0 mph51.5 kmh 29.85 in1010.8 mb 0.00 in0.0 mm 0.00 in/hr0.0 mm/hr 0.00 in0.0 mm
03:25 AM 34.0°F1.1°C 6.5°F-14.2°C 31% 30.0 mph SW48.3 kmh SW 34.0 mph54.7 kmh 29.85 in1010.8 mb 0.00 in0.0 mm 0.00 in/hr0.0 mm/hr 0.00 in0.0 mm
03:30 AM 34.4°F1.3°C 5.4°F-14.8°C 29% 27.0 mph W43.5 kmh W 44.0 mph70.8 kmh 29.85 in1010.8 mb 0.00 in0.0 mm 0.00 in/hr0.0 mm/hr 0.00 in0.0 mm
03:35 AM 34.7°F1.5°C 4.9°F-15.1°C 28% 28.0 mph WSW45.1 kmh WSW 46.0 mph74.0 kmh 29.85 in1010.8 mb 0.00 in0.0 mm 0.00 in/hr0.0 mm/hr 0.00 in0.0 mm
03:40 AM 34.9°F1.6°C 5.1°F-14.9°C 28% 6.0 mph W9.7 kmh W 40.0 mph64.4 kmh 29.85 in1010.8 mb 0.00 in0.0 mm 0.00 in/hr0.0 mm/hr 0.00 in0.0 mm
03:45 AM 34.4°F1.3°C 5.4°F-14.8°C 29% 26.0 mph W41.8 kmh W 42.0 mph67.6 kmh 29.84 in1010.5 mb 0.00 in0.0 mm 0.00 in/hr0.0 mm/hr 0.00 in0.0 mm
03:50 AM 34.2°F1.2°C 5.2°F-14.9°C 29% 16.0 mph WSW25.7 kmh WSW 37.0 mph59.5 kmh 29.84 in1010.5 mb 0.00 in0.0 mm 0.00 in/hr0.0 mm/hr 0.00 in0.0 mm
03:55 AM 34.0°F1.1°C 5.8°F-14.6°C 30% 8.0 mph NW12.9 kmh NW 26.0 mph41.8 kmh 29.84 in1010.5 mb 0.00 in0.0 mm 0.00 in/hr0.0 mm/hr 0.00 in0.0 mm
04:00 AM 32.5°F0.3°C 5.2°F-14.9°C 31% 23.0 mph WSW37.0 kmh WSW 40.0 mph64.4 kmh 29.84 in1010.5 mb 0.00 in0.0 mm 0.00 in/hr0.0 mm/hr 0.00 in0.0 mm
04:05 AM 32.7°F0.4°C 5.4°F-14.8°C 31% 11.0 mph WNW17.7 kmh WNW 24.0 mph38.6 kmh 29.83 in1010.2 mb 0.00 in0.0 mm 0.00 in/hr0.0 mm/hr 0.00 in0.0 mm
04:10 AM 32.7°F0.4°C 5.4°F-14.8°C 31% 10.0 mph WSW16.1 kmh WSW 38.0 mph61.2 kmh 29.83 in1010.2 mb 0.00 in0.0 mm 0.00 in/hr0.0 mm/hr 0.00 in0.0 mm
04:15 AM 33.2°F0.7°C 5.1°F-14.9°C 30% 15.0 mph SW24.1 kmh SW 25.0 mph40.2 kmh 29.83 in1010.2 mb 0.00 in0.0 mm 0.00 in/hr0.0 mm/hr 0.00 in0.0 mm
04:20 AM 32.7°F0.4°C 5.4°F-14.8°C 31% 8.0 mph W12.9 kmh W 22.0 mph35.4 kmh 29.83 in1010.2 mb 0.00 in0.0 mm 0.00 in/hr0.0 mm/hr 0.00 in0.0 mm
04:25 AM 32.6°F0.3°C 6.0°F-14.4°C 32% 3.0 mph W4.8 kmh W 26.0 mph41.8 kmh 29.83 in1010.2 mb 0.00 in0.0 mm 0.00 in/hr0.0 mm/hr 0.00 in0.0 mm
04:30 AM 32.2°F0.1°C 6.3°F-14.3°C 33% 3.0 mph W4.8 kmh W 31.0 mph49.9 kmh 29.83 in1010.2 mb 0.00 in0.0 mm 0.00 in/hr0.0 mm/hr 0.00 in0.0 mm
04:35 AM 31.9°F-0.1°C 6.7°F-14.1°C 34% 18.0 mph WSW29.0 kmh WSW 20.0 mph32.2 kmh 29.82 in1009.8 mb 0.00 in0.0 mm 0.00 in/hr0.0 mm/hr 0.00 in0.0 mm
04:40 AM 32.0°F0.0°C 6.1°F-14.4°C 33% 7.0 mph W11.3 kmh W 26.0 mph41.8 kmh 29.82 in1009.8 mb 0.00 in0.0 mm 0.00 in/hr0.0 mm/hr 0.00 in0.0 mm
04:45 AM 32.3°F0.2°C 6.4°F-14.2°C 33% 17.0 mph SW27.4 kmh SW 26.0 mph41.8 kmh 29.82 in1009.8 mb 0.00 in0.0 mm 0.00 in/hr0.0 mm/hr 0.00 in0.0 mm
04:50 AM 32.1°F0.1°C 6.2°F-14.3°C 33% 11.0 mph WSW17.7 kmh WSW 22.0 mph35.4 kmh 29.83 in1010.2 mb 0.00 in0.0 mm 0.00 in/hr0.0 mm/hr 0.00 in0.0 mm
04:55 AM 32.1°F0.1°C 6.9°F-13.9°C 34% 7.0 mph W11.3 kmh W 20.0 mph32.2 kmh 29.82 in1009.8 mb 0.00 in0.0 mm 0.00 in/hr0.0 mm/hr 0.00 in0.0 mm
05:00 AM 32.0°F0.0°C 6.8°F-14.0°C 34% 5.0 mph NW8.0 kmh NW 23.0 mph37.0 kmh 29.82 in1009.8 mb 0.00 in0.0 mm 0.00 in/hr0.0 mm/hr 0.00 in0.0 mm
05:05 AM 31.5°F-0.3°C 7.0°F-13.9°C 35% 11.0 mph W17.7 kmh W 18.0 mph29.0 kmh 29.82 in1009.8 mb 0.00 in0.0 mm 0.00 in/hr0.0 mm/hr 0.00 in0.0 mm
05:10 AM 31.2°F-0.4°C 7.3°F-13.7°C 36% 4.0 mph NW6.4 kmh NW 14.0 mph22.5 kmh 29.81 in1009.5 mb 0.00 in0.0 mm 0.00 in/hr0.0 mm/hr 0.00 in0.0 mm
05:15 AM 30.7°F-0.7°C 7.5°F-13.6°C 37% 2.0 mph NNE3.2 kmh NNE 8.0 mph12.9 kmh 29.82 in1009.8 mb 0.00 in0.0 mm 0.00 in/hr0.0 mm/hr 0.00 in0.0 mm
05:20 AM 30.6°F-0.8°C 7.4°F-13.7°C 37% 8.0 mph WSW12.9 kmh WSW 18.0 mph29.0 kmh 29.81 in1009.5 mb 0.00 in0.0 mm 0.00 in/hr0.0 mm/hr 0.00 in0.0 mm
05:25 AM 31.5°F-0.3°C 7.0°F-13.9°C 35% 10.0 mph SW16.1 kmh SW 22.0 mph35.4 kmh 29.81 in1009.5 mb 0.00 in0.0 mm 0.00 in/hr0.0 mm/hr 0.00 in0.0 mm
05:30 AM 31.9°F-0.1°C 6.7°F-14.1°C 34% 7.0 mph W11.3 kmh W 22.0 mph35.4 kmh 29.80 in1009.1 mb 0.00 in0.0 mm 0.00 in/hr0.0 mm/hr 0.00 in0.0 mm
05:35 AM 32.0°F0.0°C 6.8°F-14.0°C 34% 14.0 mph SW22.5 kmh SW 21.0 mph33.8 kmh 29.80 in1009.1 mb 0.00 in0.0 mm 0.00 in/hr0.0 mm/hr 0.00 in0.0 mm
05:40 AM 31.9°F-0.1°C 7.3°F-13.7°C 35% 7.0 mph W11.3 kmh W 20.0 mph32.2 kmh 29.80 in1009.1 mb 0.00 in0.0 mm 0.00 in/hr0.0 mm/hr 0.00 in0.0 mm
05:45 AM 32.1°F0.1°C 6.9°F-13.9°C 34% 14.0 mph SW22.5 kmh SW 22.0 mph35.4 kmh 29.79 in1008.8 mb 0.00 in0.0 mm 0.00 in/hr0.0 mm/hr 0.00 in0.0 mm
05:50 AM 32.3°F0.2°C 7.1°F-13.8°C 34% 16.0 mph SSW25.7 kmh SSW 24.0 mph38.6 kmh 29.79 in1008.8 mb 0.00 in0.0 mm 0.00 in/hr0.0 mm/hr 0.00 in0.0 mm
05:55 AM 32.3°F0.2°C 7.1°F-13.8°C 34% 12.0 mph SSW19.3 kmh SSW 25.0 mph40.2 kmh 29.80 in1009.1 mb 0.00 in0.0 mm 0.00 in/hr0.0 mm/hr 0.00 in0.0 mm
06:00 AM 31.9°F-0.1°C 8.0°F-13.3°C 36% 12.0 mph SW19.3 kmh SW 24.0 mph38.6 kmh 29.80 in1009.1 mb 0.00 in0.0 mm 0.00 in/hr0.0 mm/hr 0.00 in0.0 mm
06:05 AM 31.4°F-0.3°C 8.1°F-13.3°C 37% 12.0 mph WSW19.3 kmh WSW 23.0 mph37.0 kmh 29.80 in1009.1 mb 0.00 in0.0 mm 0.00 in/hr0.0 mm/hr 0.00 in0.0 mm
06:10 AM 31.1°F-0.5°C 8.4°F-13.1°C 38% 4.0 mph SW6.4 kmh SW 28.0 mph45.1 kmh 29.80 in1009.1 mb 0.00 in0.0 mm 0.00 in/hr0.0 mm/hr 0.00 in0.0 mm
06:15 AM 31.1°F-0.5°C 8.4°F-13.1°C 38% 26.0 mph SW41.8 kmh SW 29.0 mph46.7 kmh 29.79 in1008.8 mb 0.00 in0.0 mm 0.00 in/hr0.0 mm/hr 0.00 in0.0 mm
06:20 AM 31.2°F-0.4°C 8.5°F-13.1°C 38% 14.0 mph WSW22.5 kmh WSW 28.0 mph45.1 kmh 29.79 in1008.8 mb 0.00 in0.0 mm 0.00 in/hr0.0 mm/hr 0.00 in0.0 mm
06:25 AM 31.1°F-0.5°C 8.4°F-13.1°C 38% 15.0 mph W24.1 kmh W 32.0 mph51.5 kmh 29.77 in1008.1 mb 0.00 in0.0 mm 0.00 in/hr0.0 mm/hr 0.00 in0.0 mm
06:30 AM 31.2°F-0.4°C 8.5°F-13.1°C 38% 16.0 mph SW25.7 kmh SW 28.0 mph45.1 kmh 29.76 in1007.8 mb 0.00 in0.0 mm 0.00 in/hr0.0 mm/hr 0.00 in0.0 mm
06:35 AM 31.6°F-0.2°C 8.3°F-13.2°C 37% 27.0 mph SW43.5 kmh SW 37.0 mph59.5 kmh 29.75 in1007.5 mb 0.00 in0.0 mm 0.00 in/hr0.0 mm/hr 0.00 in0.0 mm
06:40 AM 32.1°F0.1°C 8.1°F-13.3°C 36% 23.0 mph WNW37.0 kmh WNW 43.0 mph69.2 kmh 29.73 in1006.8 mb 0.00 in0.0 mm 0.00 in/hr0.0 mm/hr 0.00 in0.0 mm
06:45 AM 32.7°F0.4°C 7.4°F-13.7°C 34% 27.0 mph SW43.5 kmh SW 50.0 mph80.5 kmh 29.73 in1006.8 mb 0.00 in0.0 mm 0.00 in/hr0.0 mm/hr 0.00 in0.0 mm
06:50 AM 32.3°F0.2°C 8.9°F-12.8°C 37% 19.0 mph SW30.6 kmh SW 51.0 mph82.1 kmh 29.73 in1006.8 mb 0.00 in0.0 mm 0.00 in/hr0.0 mm/hr 0.00 in0.0 mm
06:55 AM 32.0°F0.0°C 8.7°F-12.9°C 37% 23.0 mph SW37.0 kmh SW 39.0 mph62.8 kmh 29.74 in1007.1 mb 0.00 in0.0 mm 0.00 in/hr0.0 mm/hr 0.00 in0.0 mm
07:00 AM 32.0°F0.0°C 8.7°F-12.9°C 37% 17.0 mph W27.4 kmh W 33.0 mph53.1 kmh 29.74 in1007.1 mb 0.00 in0.0 mm 0.00 in/hr0.0 mm/hr 0.00 in0.0 mm
07:05 AM 32.1°F0.1°C 8.1°F-13.3°C 36% 21.0 mph SW33.8 kmh SW 33.0 mph53.1 kmh 29.73 in1006.8 mb 0.00 in0.0 mm 0.00 in/hr0.0 mm/hr 0.00 in0.0 mm
07:10 AM 32.5°F0.3°C 7.2°F-13.8°C 34% 19.0 mph WSW30.6 kmh WSW 34.0 mph54.7 kmh 29.71 in1006.1 mb 0.00 in0.0 mm 0.00 in/hr0.0 mm/hr 0.00 in0.0 mm
07:15 AM 33.9°F1.1°C 6.4°F-14.2°C 31% 15.0 mph SW24.1 kmh SW 41.0 mph66.0 kmh 29.71 in1006.1 mb 0.00 in0.0 mm 0.00 in/hr0.0 mm/hr 0.00 in0.0 mm
07:20 AM 34.6°F1.4°C 6.3°F-14.3°C 30% 19.0 mph WSW30.6 kmh WSW 44.0 mph70.8 kmh 29.71 in1006.1 mb 0.00 in0.0 mm 0.00 in/hr0.0 mm/hr 0.00 in0.0 mm
07:25 AM 34.6°F1.4°C 6.3°F-14.3°C 30% 22.0 mph SW35.4 kmh SW 40.0 mph64.4 kmh 29.72 in1006.4 mb 0.00 in0.0 mm 0.00 in/hr0.0 mm/hr 0.00 in0.0 mm
07:30 AM 34.3°F1.3°C 6.8°F-14.0°C 31% 16.0 mph SW25.7 kmh SW 32.0 mph51.5 kmh 29.71 in1006.1 mb 0.00 in0.0 mm 0.00 in/hr0.0 mm/hr 0.00 in0.0 mm
07:35 AM 34.8°F1.6°C 5.8°F-14.6°C 29% 20.0 mph WSW32.2 kmh WSW 31.0 mph49.9 kmh 29.70 in1005.8 mb 0.00 in0.0 mm 0.00 in/hr0.0 mm/hr 0.00 in0.0 mm
07:40 AM 34.7°F1.5°C 7.1°F-13.8°C 31% 28.0 mph SW45.1 kmh SW 33.0 mph53.1 kmh 29.71 in1006.1 mb 0.00 in0.0 mm 0.00 in/hr0.0 mm/hr 0.00 in0.0 mm
07:45 AM 34.2°F1.2°C 8.1°F-13.3°C 33% 6.0 mph SW9.7 kmh SW 35.0 mph56.3 kmh 29.72 in1006.4 mb 0.00 in0.0 mm 0.00 in/hr0.0 mm/hr 0.00 in0.0 mm
07:50 AM 33.7°F0.9°C 8.3°F-13.2°C 34% 25.0 mph WSW40.2 kmh WSW 39.0 mph62.8 kmh 29.73 in1006.8 mb 0.00 in0.0 mm 0.00 in/hr0.0 mm/hr 0.00 in0.0 mm
07:55 AM 33.4°F0.8°C 8.7°F-12.9°C 35% 4.0 mph WNW6.4 kmh WNW 29.0 mph46.7 kmh 29.73 in1006.8 mb 0.00 in0.0 mm 0.00 in/hr0.0 mm/hr 0.00 in0.0 mm
08:00 AM 33.5°F0.8°C 8.1°F-13.3°C 34% 11.0 mph SW17.7 kmh SW 22.0 mph35.4 kmh 29.73 in1006.8 mb 0.00 in0.0 mm 0.00 in/hr0.0 mm/hr 0.00 in0.0 mm
08:05 AM 33.4°F0.8°C 8.7°F-12.9°C 35% 35.0 mph WSW56.3 kmh WSW 35.0 mph56.3 kmh 29.73 in1006.8 mb 0.00 in0.0 mm 0.00 in/hr0.0 mm/hr 0.00 in0.0 mm
08:15 AM 33.0°F0.6°C 9.6°F-12.4°C 37% 22.0 mph WSW35.4 kmh WSW 39.0 mph62.8 kmh 29.73 in1006.8 mb 0.00 in0.0 mm 0.00 in/hr0.0 mm/hr 0.00 in0.0 mm
08:20 AM 32.9°F0.5°C 9.5°F-12.5°C 37% 25.0 mph WSW40.2 kmh WSW 27.0 mph43.5 kmh 29.73 in1006.8 mb 0.00 in0.0 mm 0.00 in/hr0.0 mm/hr 0.00 in0.0 mm
08:25 AM 33.0°F0.6°C 8.9°F-12.8°C 36% 9.0 mph WSW14.5 kmh WSW 24.0 mph38.6 kmh 29.73 in1006.8 mb 0.00 in0.0 mm 0.00 in/hr0.0 mm/hr 0.00 in0.0 mm
08:30 AM 33.6°F0.9°C 8.9°F-12.8°C 35% 8.0 mph W12.9 kmh W 28.0 mph45.1 kmh 29.73 in1006.8 mb 0.00 in0.0 mm 0.00 in/hr0.0 mm/hr 0.00 in0.0 mm
08:35 AM 34.0°F1.1°C 8.6°F-13.0°C 34% 10.0 mph SW16.1 kmh SW 32.0 mph51.5 kmh 29.73 in1006.8 mb 0.00 in0.0 mm 0.00 in/hr0.0 mm/hr 0.00 in0.0 mm
08:40 AM 34.2°F1.2°C 8.1°F-13.3°C 33% 22.0 mph WSW35.4 kmh WSW 31.0 mph49.9 kmh 29.72 in1006.4 mb 0.00 in0.0 mm 0.00 in/hr0.0 mm/hr 0.00 in0.0 mm
08:45 AM 34.4°F1.3°C 8.3°F-13.2°C 33% 13.0 mph SW20.9 kmh SW 37.0 mph59.5 kmh 29.72 in1006.4 mb 0.00 in0.0 mm 0.00 in/hr0.0 mm/hr 0.00 in0.0 mm
08:50 AM 34.7°F1.5°C 8.5°F-13.1°C 33% 32.0 mph SW51.5 kmh SW 32.0 mph51.5 kmh 29.71 in1006.1 mb 0.00 in0.0 mm 0.00 in/hr0.0 mm/hr 0.00 in0.0 mm
08:55 AM 34.8°F1.6°C 7.9°F-13.4°C 32% 9.0 mph W14.5 kmh W 38.0 mph61.2 kmh 29.72 in1006.4 mb 0.00 in0.0 mm 0.00 in/hr0.0 mm/hr 0.00 in0.0 mm
09:00 AM 34.8°F1.6°C 8.6°F-13.0°C 33% 25.0 mph W40.2 kmh W 34.0 mph54.7 kmh 29.72 in1006.4 mb 0.00 in0.0 mm 0.00 in/hr0.0 mm/hr 0.00 in0.0 mm
09:05 AM 34.8°F1.6°C 7.9°F-13.4°C 32% 17.0 mph W27.4 kmh W 28.0 mph45.1 kmh 29.71 in1006.1 mb 0.00 in0.0 mm 0.00 in/hr0.0 mm/hr 0.00 in0.0 mm
09:10 AM 35.0°F1.7°C 9.5°F-12.5°C 34% 10.0 mph SW16.1 kmh SW 27.0 mph43.5 kmh 29.72 in1006.4 mb 0.00 in0.0 mm 0.00 in/hr0.0 mm/hr 0.00 in0.0 mm
09:15 AM 34.6°F1.4°C 9.7°F-12.4°C 35% 10.0 mph NW16.1 kmh NW 21.0 mph33.8 kmh 29.72 in1006.4 mb 0.00 in0.0 mm 0.00 in/hr0.0 mm/hr 0.00 in0.0 mm
09:20 AM 33.5°F0.8°C 9.4°F-12.6°C 36% 3.0 mph W4.8 kmh W 30.0 mph48.3 kmh 29.74 in1007.1 mb 0.00 in0.0 mm 0.00 in/hr0.0 mm/hr 0.00 in0.0 mm
09:25 AM 33.4°F0.8°C 9.9°F-12.3°C 37% 4.0 mph W6.4 kmh W 26.0 mph41.8 kmh 29.74 in1007.1 mb 0.00 in0.0 mm 0.00 in/hr0.0 mm/hr 0.00 in0.0 mm
09:30 AM 32.9°F0.5°C 10.6°F-11.9°C 39% 9.0 mph W14.5 kmh W 22.0 mph35.4 kmh 29.74 in1007.1 mb 0.00 in0.0 mm 0.00 in/hr0.0 mm/hr 0.00 in0.0 mm
09:35 AM 33.0°F0.6°C 10.1°F-12.2°C 38% 8.0 mph WNW12.9 kmh WNW 16.0 mph25.7 kmh 29.74 in1007.1 mb 0.00 in0.0 mm 0.00 in/hr0.0 mm/hr 0.00 in0.0 mm
09:40 AM 33.0°F0.6°C 10.1°F-12.2°C 38% 4.0 mph NW6.4 kmh NW 20.0 mph32.2 kmh 29.74 in1007.1 mb 0.00 in0.0 mm 0.00 in/hr0.0 mm/hr 0.00 in0.0 mm
09:45 AM 32.8°F0.4°C 11.1°F-11.6°C 40% 9.0 mph W14.5 kmh W 18.0 mph29.0 kmh 29.74 in1007.1 mb 0.00 in0.0 mm 0.00 in/hr0.0 mm/hr 0.00 in0.0 mm
09:50 AM 32.9°F0.5°C 11.2°F-11.6°C 40% 18.0 mph SW29.0 kmh SW 19.0 mph30.6 kmh 29.73 in1006.8 mb 0.00 in0.0 mm 0.00 in/hr0.0 mm/hr 0.00 in0.0 mm
09:55 AM 33.2°F0.7°C 10.9°F-11.7°C 39% 10.0 mph W16.1 kmh W 21.0 mph33.8 kmh 29.72 in1006.4 mb 0.00 in0.0 mm 0.00 in/hr0.0 mm/hr 0.00 in0.0 mm
10:00 AM 33.3°F0.7°C 11.6°F-11.3°C 40% 3.0 mph SW4.8 kmh SW 19.0 mph30.6 kmh 29.72 in1006.4 mb 0.00 in0.0 mm 0.00 in/hr0.0 mm/hr 0.00 in0.0 mm
10:05 AM 33.9°F1.1°C 11.0°F-11.7°C 38% 15.0 mph WSW24.1 kmh WSW 23.0 mph37.0 kmh 29.72 in1006.4 mb 0.00 in0.0 mm 0.00 in/hr0.0 mm/hr 0.00 in0.0 mm
10:10 AM 34.2°F1.2°C 11.2°F-11.6°C 38% 8.0 mph W12.9 kmh W 19.0 mph30.6 kmh 29.73 in1006.8 mb 0.00 in0.0 mm 0.00 in/hr0.0 mm/hr 0.00 in0.0 mm
10:15 AM 33.6°F0.9°C 11.8°F-11.2°C 40% 21.0 mph WSW33.8 kmh WSW 21.0 mph33.8 kmh 29.72 in1006.4 mb 0.00 in0.0 mm 0.00 in/hr0.0 mm/hr 0.00 in0.0 mm
10:20 AM 35.0°F1.7°C 11.3°F-11.5°C 37% 1.0 mph W1.6 kmh W 24.0 mph38.6 kmh 29.71 in1006.1 mb 0.00 in0.0 mm 0.00 in/hr0.0 mm/hr 0.00 in0.0 mm
10:25 AM 35.9°F2.2°C 11.5°F-11.4°C 36% 7.0 mph SW11.3 kmh SW 22.0 mph35.4 kmh 29.72 in1006.4 mb 0.00 in0.0 mm 0.00 in/hr0.0 mm/hr 0.00 in0.0 mm
10:30 AM 36.7°F2.6°C 11.0°F-11.7°C 34% 4.0 mph SW6.4 kmh SW 12.0 mph19.3 kmh 29.73 in1006.8 mb 0.00 in0.0 mm 0.00 in/hr0.0 mm/hr 0.00 in0.0 mm
10:35 AM 36.9°F2.7°C 11.8°F-11.2°C 35% 6.0 mph W9.7 kmh W 12.0 mph19.3 kmh 29.73 in1006.8 mb 0.00 in0.0 mm 0.00 in/hr0.0 mm/hr 0.00 in0.0 mm
10:40 AM 37.4°F3.0°C 11.6°F-11.3°C 34% 9.0 mph SW14.5 kmh SW 19.0 mph30.6 kmh 29.71 in1006.1 mb 0.00 in0.0 mm 0.00 in/hr0.0 mm/hr 0.00 in0.0 mm
10:45 AM 37.8°F3.2°C 9.9°F-12.3°C 31% 12.0 mph W19.3 kmh W 23.0 mph37.0 kmh 29.73 in1006.8 mb 0.00 in0.0 mm 0.00 in/hr0.0 mm/hr 0.00 in0.0 mm
10:50 AM 38.7°F3.7°C 11.4°F-11.4°C 32% 10.0 mph WSW16.1 kmh WSW 18.0 mph29.0 kmh 29.70 in1005.8 mb 0.00 in0.0 mm 0.00 in/hr0.0 mm/hr 0.00 in0.0 mm
10:55 AM 38.3°F3.5°C 10.3°F-12.1°C 31% 14.0 mph S22.5 kmh S 21.0 mph33.8 kmh 29.70 in1005.8 mb 0.00 in0.0 mm 0.00 in/hr0.0 mm/hr 0.00 in0.0 mm
11:00 AM 38.6°F3.7°C 11.3°F-11.5°C 32% 7.0 mph SSW11.3 kmh SSW 18.0 mph29.0 kmh 29.70 in1005.8 mb 0.00 in0.0 mm 0.00 in/hr0.0 mm/hr 0.00 in0.0 mm
11:05 AM 38.6°F3.7°C 11.3°F-11.5°C 32% 9.0 mph SSW14.5 kmh SSW 16.0 mph25.7 kmh 29.69 in1005.4 mb 0.00 in0.0 mm 0.00 in/hr0.0 mm/hr 0.00 in0.0 mm
11:10 AM 38.8°F3.8°C 11.4°F-11.4°C 32% 7.0 mph WSW11.3 kmh WSW 11.0 mph17.7 kmh 29.70 in1005.8 mb 0.00 in0.0 mm 0.00 in/hr0.0 mm/hr 0.00 in0.0 mm
11:15 AM 38.9°F3.8°C 11.5°F-11.4°C 32% 5.0 mph SW8.0 kmh SW 11.0 mph17.7 kmh 29.68 in1005.1 mb 0.00 in0.0 mm 0.00 in/hr0.0 mm/hr 0.00 in0.0 mm
11:20 AM 38.9°F3.8°C 11.5°F-11.4°C 32% 1.0 mph NW1.6 kmh NW 11.0 mph17.7 kmh 29.68 in1005.1 mb 0.00 in0.0 mm 0.00 in/hr0.0 mm/hr 0.00 in0.0 mm
11:25 AM 38.7°F3.7°C 11.4°F-11.4°C 32% 6.0 mph NW9.7 kmh NW 13.0 mph20.9 kmh 29.67 in1004.7 mb 0.00 in0.0 mm 0.00 in/hr0.0 mm/hr 0.00 in0.0 mm
11:30 AM 37.8°F3.2°C 11.9°F-11.2°C 34% 7.0 mph WNW11.3 kmh WNW 15.0 mph24.1 kmh 29.66 in1004.4 mb 0.00 in0.0 mm 0.00 in/hr0.0 mm/hr 0.00 in0.0 mm
11:35 AM 37.3°F2.9°C 12.1°F-11.1°C 35% Calm Calm 10.0 mph16.1 kmh 29.65 in1004.1 mb 0.00 in0.0 mm 0.00 in/hr0.0 mm/hr 0.00 in0.0 mm
11:40 AM 37.4°F3.0°C 12.2°F-11.0°C 35% 1.0 mph SSW1.6 kmh SSW 3.0 mph4.8 kmh 29.64 in1003.7 mb 0.00 in0.0 mm 0.00 in/hr0.0 mm/hr 0.00 in0.0 mm
11:45 AM 38.8°F3.8°C 12.8°F-10.7°C 34% 5.0 mph SE8.0 kmh SE 9.0 mph14.5 kmh 29.64 in1003.7 mb 0.00 in0.0 mm 0.00 in/hr0.0 mm/hr 0.00 in0.0 mm
11:50 AM 40.4°F4.7°C 13.5°F-10.3°C 33% 8.0 mph SSW12.9 kmh SSW 9.0 mph14.5 kmh 29.63 in1003.4 mb 0.00 in0.0 mm 0.00 in/hr0.0 mm/hr 0.00 in0.0 mm
11:55 AM 41.5°F5.3°C 13.8°F-10.1°C 32% 4.0 mph WSW6.4 kmh WSW 14.0 mph22.5 kmh 29.62 in1003.0 mb 0.00 in0.0 mm 0.00 in/hr0.0 mm/hr 0.00 in0.0 mm
12:00 PM 42.3°F5.7°C 13.1°F-10.5°C 30% 14.0 mph SW22.5 kmh SW 22.0 mph35.4 kmh 29.61 in1002.7 mb 0.00 in0.0 mm 0.00 in/hr0.0 mm/hr 0.00 in0.0 mm
12:05 PM 42.6°F5.9°C 13.3°F-10.4°C 30% 2.0 mph NW3.2 kmh NW 15.0 mph24.1 kmh 29.61 in1002.7 mb 0.00 in0.0 mm 0.00 in/hr0.0 mm/hr 0.00 in0.0 mm
12:10 PM 42.9°F6.1°C 13.6°F-10.2°C 30% 8.0 mph NW12.9 kmh NW 21.0 mph33.8 kmh 29.61 in1002.7 mb 0.00 in0.0 mm 0.00 in/hr0.0 mm/hr 0.00 in0.0 mm
12:15 PM 43.1°F6.2°C 13.7°F-10.2°C 30% 4.0 mph NW6.4 kmh NW 18.0 mph29.0 kmh 29.61 in1002.7 mb 0.00 in0.0 mm 0.00 in/hr0.0 mm/hr 0.00 in0.0 mm
12:20 PM 43.7°F6.5°C 13.5°F-10.3°C 29% 1.0 mph SSE1.6 kmh SSE 12.0 mph19.3 kmh 29.62 in1003.0 mb 0.00 in0.0 mm 0.00 in/hr0.0 mm/hr 0.00 in0.0 mm
12:25 PM 43.7°F6.5°C 12.7°F-10.7°C 28% 13.0 mph W20.9 kmh W 23.0 mph37.0 kmh 29.61 in1002.7 mb 0.00 in0.0 mm 0.00 in/hr0.0 mm/hr 0.00 in0.0 mm
12:30 PM 43.5°F6.4°C 13.3°F-10.4°C 29% 4.0 mph W6.4 kmh W 15.0 mph24.1 kmh 29.60 in1002.4 mb 0.00 in0.0 mm 0.00 in/hr0.0 mm/hr 0.00 in0.0 mm
12:35 PM 44.1°F6.7°C 13.1°F-10.5°C 28% 9.0 mph SSW14.5 kmh SSW 27.0 mph43.5 kmh 29.59 in1002.0 mb 0.00 in0.0 mm 0.00 in/hr0.0 mm/hr 0.00 in0.0 mm
12:40 PM 43.9°F6.6°C 12.1°F-11.1°C 27% 18.0 mph WSW29.0 kmh WSW 40.0 mph64.4 kmh 29.59 in1002.0 mb 0.00 in0.0 mm 0.00 in/hr0.0 mm/hr 0.00 in0.0 mm
12:45 PM 43.4°F6.3°C 12.4°F-10.9°C 28% 15.0 mph W24.1 kmh W 32.0 mph51.5 kmh 29.60 in1002.4 mb 0.00 in0.0 mm 0.00 in/hr0.0 mm/hr 0.00 in0.0 mm
12:50 PM 42.3°F5.7°C 12.3°F-10.9°C 29% 15.0 mph NW24.1 kmh NW 31.0 mph49.9 kmh 29.60 in1002.4 mb 0.00 in0.0 mm 0.00 in/hr0.0 mm/hr 0.00 in0.0 mm
12:55 PM 41.9°F5.5°C 13.4°F-10.3°C 31% 28.0 mph WSW45.1 kmh WSW 32.0 mph51.5 kmh 29.59 in1002.0 mb 0.00 in0.0 mm 0.00 in/hr0.0 mm/hr 0.00 in0.0 mm
01:00 PM 40.5°F4.7°C 13.6°F-10.2°C 33% 18.0 mph WSW29.0 kmh WSW 40.0 mph64.4 kmh 29.59 in1002.0 mb 0.00 in0.0 mm 0.00 in/hr0.0 mm/hr 0.00 in0.0 mm
01:05 PM 39.5°F4.2°C 14.1°F-9.9°C 35% 3.0 mph WSW4.8 kmh WSW 39.0 mph62.8 kmh 29.60 in1002.4 mb 0.00 in0.0 mm 0.00 in/hr0.0 mm/hr 0.00 in0.0 mm
01:10 PM 38.8°F3.8°C 14.1°F-9.9°C 36% 32.0 mph SW51.5 kmh SW 36.0 mph57.9 kmh 29.58 in1001.7 mb 0.00 in0.0 mm 0.00 in/hr0.0 mm/hr 0.00 in0.0 mm
01:15 PM 39.2°F4.0°C 14.5°F-9.7°C 36% 15.0 mph SW24.1 kmh SW 32.0 mph51.5 kmh 29.58 in1001.7 mb 0.00 in0.0 mm 0.00 in/hr0.0 mm/hr 0.00 in0.0 mm
01:20 PM 39.5°F4.2°C 14.7°F-9.6°C 36% 14.0 mph WSW22.5 kmh WSW 28.0 mph45.1 kmh 29.56 in1001.0 mb 0.00 in0.0 mm 0.00 in/hr0.0 mm/hr 0.00 in0.0 mm
01:25 PM 40.2°F4.6°C 14.7°F-9.6°C 35% 13.0 mph SSW20.9 kmh SSW 41.0 mph66.0 kmh 29.56 in1001.0 mb 0.00 in0.0 mm 0.00 in/hr0.0 mm/hr 0.00 in0.0 mm
01:30 PM 40.3°F4.6°C 14.8°F-9.6°C 35% 26.0 mph SW41.8 kmh SW 34.0 mph54.7 kmh 29.56 in1001.0 mb 0.00 in0.0 mm 0.00 in/hr0.0 mm/hr 0.00 in0.0 mm
01:35 PM 39.7°F4.3°C 14.9°F-9.5°C 36% 15.0 mph WNW24.1 kmh WNW 36.0 mph57.9 kmh 29.57 in1001.4 mb 0.00 in0.0 mm 0.00 in/hr0.0 mm/hr 0.00 in0.0 mm
01:40 PM 39.6°F4.2°C 14.8°F-9.6°C 36% 25.0 mph WSW40.2 kmh WSW 33.0 mph53.1 kmh 29.57 in1001.4 mb 0.00 in0.0 mm 0.00 in/hr0.0 mm/hr 0.00 in0.0 mm
01:45 PM 40.1°F4.5°C 14.6°F-9.7°C 35% 6.0 mph SSW9.7 kmh SSW 30.0 mph48.3 kmh 29.58 in1001.7 mb 0.00 in0.0 mm 0.00 in/hr0.0 mm/hr 0.00 in0.0 mm
01:50 PM 40.2°F4.6°C 14.7°F-9.6°C 35% 14.0 mph SW22.5 kmh SW 27.0 mph43.5 kmh 29.58 in1001.7 mb 0.00 in0.0 mm 0.00 in/hr0.0 mm/hr 0.00 in0.0 mm
01:55 PM 39.9°F4.4°C 14.4°F-9.8°C 35% 2.0 mph WSW3.2 kmh WSW 37.0 mph59.5 kmh 29.58 in1001.7 mb 0.00 in0.0 mm 0.00 in/hr0.0 mm/hr 0.00 in0.0 mm
02:00 PM 39.7°F4.3°C 14.3°F-9.8°C 35% 13.0 mph SW20.9 kmh SW 28.0 mph45.1 kmh 29.58 in1001.7 mb 0.00 in0.0 mm 0.00 in/hr0.0 mm/hr 0.00 in0.0 mm
02:05 PM 39.1°F3.9°C 13.7°F-10.2°C 35% 3.0 mph SSW4.8 kmh SSW 18.0 mph29.0 kmh 29.57 in1001.4 mb 0.00 in0.0 mm 0.00 in/hr0.0 mm/hr 0.00 in0.0 mm
02:10 PM 38.9°F3.8°C 14.2°F-9.9°C 36% 2.0 mph NE3.2 kmh NE 14.0 mph22.5 kmh 29.57 in1001.4 mb 0.00 in0.0 mm 0.00 in/hr0.0 mm/hr 0.00 in0.0 mm
02:15 PM 38.7°F3.7°C 14.0°F-10.0°C 36% 2.0 mph NW3.2 kmh NW 16.0 mph25.7 kmh 29.56 in1001.0 mb 0.00 in0.0 mm 0.00 in/hr0.0 mm/hr 0.00 in0.0 mm
02:20 PM 38.2°F3.4°C 13.6°F-10.2°C 36% 28.0 mph SW45.1 kmh SW 33.0 mph53.1 kmh 29.56 in1001.0 mb 0.00 in0.0 mm 0.00 in/hr0.0 mm/hr 0.00 in0.0 mm
02:25 PM 37.9°F3.3°C 13.3°F-10.4°C 36% 21.0 mph S33.8 kmh S 28.0 mph45.1 kmh 29.55 in1000.7 mb 0.00 in0.0 mm 0.00 in/hr0.0 mm/hr 0.00 in0.0 mm
02:30 PM 38.3°F3.5°C 13.7°F-10.2°C 36% 8.0 mph SW12.9 kmh SW 25.0 mph40.2 kmh 29.55 in1000.7 mb 0.00 in0.0 mm 0.00 in/hr0.0 mm/hr 0.00 in0.0 mm
02:35 PM 39.2°F4.0°C 14.5°F-9.7°C 36% 14.0 mph WNW22.5 kmh WNW 28.0 mph45.1 kmh 29.55 in1000.7 mb 0.00 in0.0 mm 0.00 in/hr0.0 mm/hr 0.00 in0.0 mm
02:40 PM 39.3°F4.1°C 13.3°F-10.4°C 34% 18.0 mph WSW29.0 kmh WSW 32.0 mph51.5 kmh 29.55 in1000.7 mb 0.00 in0.0 mm 0.00 in/hr0.0 mm/hr 0.00 in0.0 mm
02:45 PM 39.2°F4.0°C 13.2°F-10.4°C 34% 21.0 mph W33.8 kmh W 23.0 mph37.0 kmh 29.55 in1000.7 mb 0.00 in0.0 mm 0.00 in/hr0.0 mm/hr 0.00 in0.0 mm
02:50 PM 38.7°F3.7°C 13.4°F-10.3°C 35% 8.0 mph WSW12.9 kmh WSW 26.0 mph41.8 kmh 29.55 in1000.7 mb 0.00 in0.0 mm 0.00 in/hr0.0 mm/hr 0.00 in0.0 mm
02:55 PM 38.4°F3.6°C 13.1°F-10.5°C 35% 14.0 mph SW22.5 kmh SW 39.0 mph62.8 kmh 29.55 in1000.7 mb 0.00 in0.0 mm 0.00 in/hr0.0 mm/hr 0.00 in0.0 mm
03:00 PM 37.8°F3.2°C 13.2°F-10.4°C 36% 28.0 mph W45.1 kmh W 28.0 mph45.1 kmh 29.55 in1000.7 mb 0.00 in0.0 mm 0.00 in/hr0.0 mm/hr 0.00 in0.0 mm
03:05 PM 38.0°F3.3°C 13.4°F-10.3°C 36% 16.0 mph WSW25.7 kmh WSW 37.0 mph59.5 kmh 29.54 in1000.3 mb 0.00 in0.0 mm 0.00 in/hr0.0 mm/hr 0.00 in0.0 mm
03:10 PM 37.9°F3.3°C 13.9°F-10.1°C 37% 23.0 mph WSW37.0 kmh WSW 30.0 mph48.3 kmh 29.53 in1000.0 mb 0.00 in0.0 mm 0.00 in/hr0.0 mm/hr 0.00 in0.0 mm
03:15 PM 38.5°F3.6°C 15.7°F-9.1°C 39% 12.0 mph W19.3 kmh W 30.0 mph48.3 kmh 29.52 in999.7 mb 0.00 in0.0 mm 0.00 in/hr0.0 mm/hr 0.00 in0.0 mm
03:20 PM 38.8°F3.8°C 15.3°F-9.3°C 38% 15.0 mph W24.1 kmh W 26.0 mph41.8 kmh 29.52 in999.7 mb 0.00 in0.0 mm 0.00 in/hr0.0 mm/hr 0.00 in0.0 mm
03:25 PM 39.2°F4.0°C 15.1°F-9.4°C 37% 11.0 mph WSW17.7 kmh WSW 24.0 mph38.6 kmh 29.52 in999.7 mb 0.00 in0.0 mm 0.00 in/hr0.0 mm/hr 0.00 in0.0 mm
03:30 PM 40.0°F4.4°C 15.8°F-9.0°C 37% 8.0 mph NW12.9 kmh NW 35.0 mph56.3 kmh 29.53 in1000.0 mb 0.00 in0.0 mm 0.00 in/hr0.0 mm/hr 0.00 in0.0 mm
03:35 PM 38.9°F3.8°C 14.2°F-9.9°C 36% 28.0 mph NW45.1 kmh NW 36.0 mph57.9 kmh 29.54 in1000.3 mb 0.00 in0.0 mm 0.00 in/hr0.0 mm/hr 0.00 in0.0 mm
03:40 PM 37.9°F3.3°C 14.5°F-9.7°C 38% 7.0 mph W11.3 kmh W 28.0 mph45.1 kmh 29.53 in1000.0 mb 0.00 in0.0 mm 0.00 in/hr0.0 mm/hr 0.00 in0.0 mm
03:45 PM 37.3°F2.9°C 14.6°F-9.7°C 39% 14.0 mph W22.5 kmh W 23.0 mph37.0 kmh 29.54 in1000.3 mb 0.00 in0.0 mm 0.00 in/hr0.0 mm/hr 0.00 in0.0 mm
03:50 PM 36.6°F2.6°C 15.1°F-9.4°C 41% 14.0 mph W22.5 kmh W 37.0 mph59.5 kmh 29.54 in1000.3 mb 0.00 in0.0 mm 0.00 in/hr0.0 mm/hr 0.00 in0.0 mm
03:55 PM 35.6°F2.0°C 16.3°F-8.7°C 45% 23.0 mph WSW37.0 kmh WSW 37.0 mph59.5 kmh 29.55 in1000.7 mb 0.00 in0.0 mm 0.00 in/hr0.0 mm/hr 0.00 in0.0 mm
04:00 PM 34.9°F1.6°C 16.7°F-8.5°C 47% 4.0 mph SW6.4 kmh SW 35.0 mph56.3 kmh 29.55 in1000.7 mb 0.00 in0.0 mm 0.00 in/hr0.0 mm/hr 0.00 in0.0 mm
04:05 PM 34.4°F1.3°C 16.7°F-8.5°C 48% 24.0 mph SW38.6 kmh SW 30.0 mph48.3 kmh 29.54 in1000.3 mb 0.00 in0.0 mm 0.00 in/hr0.0 mm/hr 0.00 in0.0 mm
04:10 PM 34.1°F1.2°C 17.4°F-8.1°C 50% 5.0 mph WNW8.0 kmh WNW 30.0 mph48.3 kmh 29.54 in1000.3 mb 0.00 in0.0 mm 0.00 in/hr0.0 mm/hr 0.00 in0.0 mm
04:15 PM 33.9°F1.1°C 17.7°F-7.9°C 51% 27.0 mph WSW43.5 kmh WSW 36.0 mph57.9 kmh 29.54 in1000.3 mb 0.00 in0.0 mm 0.00 in/hr0.0 mm/hr 0.00 in0.0 mm
04:20 PM 33.4°F0.8°C 18.1°F-7.7°C 53% 15.0 mph WNW24.1 kmh WNW 29.0 mph46.7 kmh 29.55 in1000.7 mb 0.00 in0.0 mm 0.00 in/hr0.0 mm/hr 0.00 in0.0 mm
04:25 PM 32.8°F0.4°C 18.8°F-7.3°C 56% 15.0 mph WNW24.1 kmh WNW 25.0 mph40.2 kmh 29.55 in1000.7 mb 0.00 in0.0 mm 0.00 in/hr0.0 mm/hr 0.00 in0.0 mm
04:30 PM 32.2°F0.1°C 20.2°F-6.6°C 61% 10.0 mph NW16.1 kmh NW 25.0 mph40.2 kmh 29.55 in1000.7 mb 0.00 in0.0 mm 0.00 in/hr0.0 mm/hr 0.00 in0.0 mm
04:35 PM 31.6°F-0.2°C 20.4°F-6.4°C 63% 6.0 mph SW9.7 kmh SW 32.0 mph51.5 kmh 29.54 in1000.3 mb 0.00 in0.0 mm 0.00 in/hr0.0 mm/hr 0.00 in0.0 mm
04:40 PM 32.0°F0.0°C 20.8°F-6.2°C 63% 35.0 mph WSW56.3 kmh WSW 39.0 mph62.8 kmh 29.53 in1000.0 mb 0.00 in0.0 mm 0.00 in/hr0.0 mm/hr 0.00 in0.0 mm
04:45 PM 31.9°F-0.1°C 20.7°F-6.3°C 63% 30.0 mph WSW48.3 kmh WSW 43.0 mph69.2 kmh 29.51 in999.3 mb 0.00 in0.0 mm 0.00 in/hr0.0 mm/hr 0.00 in0.0 mm
04:50 PM 32.3°F0.2°C 21.1°F-6.1°C 63% 22.0 mph SW35.4 kmh SW 47.0 mph75.6 kmh 29.52 in999.7 mb 0.00 in0.0 mm 0.00 in/hr0.0 mm/hr 0.00 in0.0 mm
04:55 PM 33.1°F0.6°C 21.1°F-6.1°C 61% 29.0 mph SW46.7 kmh SW 42.0 mph67.6 kmh 29.52 in999.7 mb 0.00 in0.0 mm 0.00 in/hr0.0 mm/hr 0.00 in0.0 mm
05:00 PM 33.4°F0.8°C 21.0°F-6.1°C 60% 22.0 mph WSW35.4 kmh WSW 40.0 mph64.4 kmh 29.51 in999.3 mb 0.00 in0.0 mm 0.00 in/hr0.0 mm/hr 0.00 in0.0 mm
05:05 PM 33.8°F1.0°C 21.0°F-6.1°C 59% 18.0 mph WSW29.0 kmh WSW 43.0 mph69.2 kmh 29.52 in999.7 mb 0.00 in0.0 mm 0.00 in/hr0.0 mm/hr 0.00 in0.0 mm
05:10 PM 33.6°F0.9°C 21.2°F-6.0°C 60% 20.0 mph SW32.2 kmh SW 32.0 mph51.5 kmh 29.54 in1000.3 mb 0.00 in0.0 mm 0.00 in/hr0.0 mm/hr 0.00 in0.0 mm
05:15 PM 33.6°F0.9°C 21.2°F-6.0°C 60% 17.0 mph SW27.4 kmh SW 29.0 mph46.7 kmh 29.54 in1000.3 mb 0.00 in0.0 mm 0.00 in/hr0.0 mm/hr 0.00 in0.0 mm
05:20 PM 34.2°F1.2°C 20.9°F-6.2°C 58% 3.0 mph SW4.8 kmh SW 32.0 mph51.5 kmh 29.53 in1000.0 mb 0.00 in0.0 mm 0.00 in/hr0.0 mm/hr 0.00 in0.0 mm
05:25 PM 34.8°F1.6°C 20.7°F-6.3°C 56% 9.0 mph W14.5 kmh W 30.0 mph48.3 kmh 29.52 in999.7 mb 0.00 in0.0 mm 0.00 in/hr0.0 mm/hr 0.00 in0.0 mm
05:30 PM 35.1°F1.7°C 21.0°F-6.1°C 56% 12.0 mph W19.3 kmh W 31.0 mph49.9 kmh 29.53 in1000.0 mb 0.00 in0.0 mm 0.00 in/hr0.0 mm/hr 0.00 in0.0 mm
05:35 PM 35.4°F1.9°C 20.4°F-6.4°C 54% 9.0 mph W14.5 kmh W 25.0 mph40.2 kmh 29.53 in1000.0 mb 0.00 in0.0 mm 0.00 in/hr0.0 mm/hr 0.00 in0.0 mm
05:40 PM 35.5°F1.9°C 20.5°F-6.4°C 54% 8.0 mph W12.9 kmh W 27.0 mph43.5 kmh 29.53 in1000.0 mb 0.00 in0.0 mm 0.00 in/hr0.0 mm/hr 0.00 in0.0 mm
05:45 PM 35.3°F1.8°C 20.7°F-6.3°C 55% 11.0 mph WSW17.7 kmh WSW 23.0 mph37.0 kmh 29.53 in1000.0 mb 0.00 in0.0 mm 0.00 in/hr0.0 mm/hr 0.00 in0.0 mm
05:50 PM 35.1°F1.7°C 20.5°F-6.4°C 55% 16.0 mph WSW25.7 kmh WSW 22.0 mph35.4 kmh 29.53 in1000.0 mb 0.00 in0.0 mm 0.00 in/hr0.0 mm/hr 0.00 in0.0 mm
05:55 PM 34.9°F1.6°C 20.8°F-6.2°C 56% 12.0 mph SSW19.3 kmh SSW 16.0 mph25.7 kmh 29.52 in999.7 mb 0.00 in0.0 mm 0.00 in/hr0.0 mm/hr 0.00 in0.0 mm
06:00 PM 34.7°F1.5°C 21.0°F-6.1°C 57% 16.0 mph SW25.7 kmh SW 22.0 mph35.4 kmh 29.52 in999.7 mb 0.00 in0.0 mm 0.00 in/hr0.0 mm/hr 0.00 in0.0 mm
06:05 PM 34.6°F1.4°C 20.9°F-6.2°C 57% 11.0 mph SW17.7 kmh SW 24.0 mph38.6 kmh 29.53 in1000.0 mb 0.00 in0.0 mm 0.00 in/hr0.0 mm/hr 0.00 in0.0 mm
06:10 PM 34.6°F1.4°C 21.3°F-5.9°C 58% 14.0 mph WSW22.5 kmh WSW 23.0 mph37.0 kmh 29.53 in1000.0 mb 0.00 in0.0 mm 0.00 in/hr0.0 mm/hr 0.00 in0.0 mm
06:15 PM 34.7°F1.5°C 21.0°F-6.1°C 57% 15.0 mph WSW24.1 kmh WSW 24.0 mph38.6 kmh 29.52 in999.7 mb 0.00 in0.0 mm 0.00 in/hr0.0 mm/hr 0.00 in0.0 mm
06:20 PM 34.7°F1.5°C 21.4°F-5.9°C 58% 15.0 mph WSW24.1 kmh WSW 31.0 mph49.9 kmh 29.53 in1000.0 mb 0.00 in0.0 mm 0.00 in/hr0.0 mm/hr 0.00 in0.0 mm
06:25 PM 34.5°F1.4°C 21.6°F-5.8°C 59% 17.0 mph WSW27.4 kmh WSW 26.0 mph41.8 kmh 29.53 in1000.0 mb 0.00 in0.0 mm 0.00 in/hr0.0 mm/hr 0.00 in0.0 mm
06:30 PM 34.4°F1.3°C 21.9°F-5.6°C 60% 9.0 mph SW14.5 kmh SW 23.0 mph37.0 kmh 29.54 in1000.3 mb 0.00 in0.0 mm 0.00 in/hr0.0 mm/hr 0.00 in0.0 mm
06:35 PM 34.2°F1.2°C 21.7°F-5.7°C 60% 15.0 mph SW24.1 kmh SW 23.0 mph37.0 kmh 29.54 in1000.3 mb 0.00 in0.0 mm 0.00 in/hr0.0 mm/hr 0.00 in0.0 mm
06:40 PM 34.3°F1.3°C 21.4°F-5.9°C 59% 18.0 mph SW29.0 kmh SW 18.0 mph29.0 kmh 29.54 in1000.3 mb 0.00 in0.0 mm 0.00 in/hr0.0 mm/hr 0.00 in0.0 mm
06:45 PM 34.3°F1.3°C 21.0°F-6.1°C 58% 6.0 mph W9.7 kmh W 14.0 mph22.5 kmh 29.54 in1000.3 mb 0.00 in0.0 mm 0.00 in/hr0.0 mm/hr 0.00 in0.0 mm
06:50 PM 34.8°F1.6°C 21.1°F-6.1°C 57% 4.0 mph SW6.4 kmh SW 19.0 mph30.6 kmh 29.54 in1000.3 mb 0.00 in0.0 mm 0.00 in/hr0.0 mm/hr 0.00 in0.0 mm
06:55 PM 34.8°F1.6°C 21.1°F-6.1°C 57% 3.0 mph WSW4.8 kmh WSW 10.0 mph16.1 kmh 29.55 in1000.7 mb 0.00 in0.0 mm 0.00 in/hr0.0 mm/hr 0.00 in0.0 mm
07:00 PM 34.8°F1.6°C 20.7°F-6.3°C 56% 11.0 mph SW17.7 kmh SW 18.0 mph29.0 kmh 29.55 in1000.7 mb 0.00 in0.0 mm 0.00 in/hr0.0 mm/hr 0.00 in0.0 mm
07:05 PM 34.8°F1.6°C 20.7°F-6.3°C 56% 12.0 mph SW19.3 kmh SW 15.0 mph24.1 kmh 29.56 in1001.0 mb 0.00 in0.0 mm 0.00 in/hr0.0 mm/hr 0.00 in0.0 mm
07:10 PM 34.8°F1.6°C 20.7°F-6.3°C 56% 4.0 mph W6.4 kmh W 12.0 mph19.3 kmh 29.56 in1001.0 mb 0.00 in0.0 mm 0.00 in/hr0.0 mm/hr 0.00 in0.0 mm
07:15 PM 34.8°F1.6°C 20.7°F-6.3°C 56% 4.0 mph W6.4 kmh W 15.0 mph24.1 kmh 29.56 in1001.0 mb 0.00 in0.0 mm 0.00 in/hr0.0 mm/hr 0.00 in0.0 mm
07:20 PM 34.4°F1.3°C 20.7°F-6.3°C 57% 11.0 mph SW17.7 kmh SW 13.0 mph20.9 kmh 29.55 in1000.7 mb 0.00 in0.0 mm 0.00 in/hr0.0 mm/hr 0.00 in0.0 mm
07:25 PM 34.1°F1.2°C 20.8°F-6.2°C 58% 17.0 mph SW27.4 kmh SW 19.0 mph30.6 kmh 29.55 in1000.7 mb 0.00 in0.0 mm 0.00 in/hr0.0 mm/hr 0.00 in0.0 mm
07:30 PM 33.7°F0.9°C 22.0°F-5.6°C 62% 11.0 mph SW17.7 kmh SW 22.0 mph35.4 kmh 29.54 in1000.3 mb 0.00 in0.0 mm 0.00 in/hr0.0 mm/hr 0.00 in0.0 mm
07:35 PM 33.7°F0.9°C 22.0°F-5.6°C 62% 5.0 mph WSW8.0 kmh WSW 23.0 mph37.0 kmh 29.54 in1000.3 mb 0.00 in0.0 mm 0.00 in/hr0.0 mm/hr 0.00 in0.0 mm
07:40 PM 33.9°F1.1°C 21.8°F-5.7°C 61% 19.0 mph SW30.6 kmh SW 23.0 mph37.0 kmh 29.53 in1000.0 mb 0.00 in0.0 mm 0.00 in/hr0.0 mm/hr 0.00 in0.0 mm
07:45 PM 34.1°F1.2°C 21.2°F-6.0°C 59% 12.0 mph WSW19.3 kmh WSW 18.0 mph29.0 kmh 29.53 in1000.0 mb 0.00 in0.0 mm 0.00 in/hr0.0 mm/hr 0.00 in0.0 mm
07:50 PM 34.2°F1.2°C 20.9°F-6.2°C 58% 10.0 mph WSW16.1 kmh WSW 16.0 mph25.7 kmh 29.53 in1000.0 mb 0.00 in0.0 mm 0.00 in/hr0.0 mm/hr 0.00 in0.0 mm
07:55 PM 34.2°F1.2°C 20.5°F-6.4°C 57% 6.0 mph W9.7 kmh W 13.0 mph20.9 kmh 29.53 in1000.0 mb 0.00 in0.0 mm 0.00 in/hr0.0 mm/hr 0.00 in0.0 mm
08:00 PM 34.4°F1.3°C 19.4°F-7.0°C 54% 12.0 mph WSW19.3 kmh WSW 30.0 mph48.3 kmh 29.52 in999.7 mb 0.00 in0.0 mm 0.00 in/hr0.0 mm/hr 0.00 in0.0 mm
08:05 PM 35.2°F1.8°C 17.9°F-7.8°C 49% 11.0 mph WSW17.7 kmh WSW 17.0 mph27.4 kmh 29.52 in999.7 mb 0.00 in0.0 mm 0.00 in/hr0.0 mm/hr 0.00 in0.0 mm
08:10 PM 35.6°F2.0°C 17.8°F-7.9°C 48% 14.0 mph SW22.5 kmh SW 22.0 mph35.4 kmh 29.52 in999.7 mb 0.00 in0.0 mm 0.00 in/hr0.0 mm/hr 0.00 in0.0 mm
08:15 PM 35.8°F2.1°C 17.5°F-8.1°C 47% 6.0 mph SW9.7 kmh SW 26.0 mph41.8 kmh 29.51 in999.3 mb 0.00 in0.0 mm 0.00 in/hr0.0 mm/hr 0.00 in0.0 mm
08:20 PM 35.7°F2.1°C 17.9°F-7.8°C 48% 15.0 mph WSW24.1 kmh WSW 25.0 mph40.2 kmh 29.51 in999.3 mb 0.00 in0.0 mm 0.00 in/hr0.0 mm/hr 0.00 in0.0 mm
08:25 PM 35.7°F2.1°C 17.9°F-7.8°C 48% 11.0 mph W17.7 kmh W 28.0 mph45.1 kmh 29.50 in999.0 mb 0.00 in0.0 mm 0.00 in/hr0.0 mm/hr 0.00 in0.0 mm
08:30 PM 35.5°F1.9°C 18.2°F-7.7°C 49% 13.0 mph WSW20.9 kmh WSW 30.0 mph48.3 kmh 29.50 in999.0 mb 0.00 in0.0 mm 0.00 in/hr0.0 mm/hr 0.00 in0.0 mm
08:35 PM 35.3°F1.8°C 18.5°F-7.5°C 50% 18.0 mph SW29.0 kmh SW 26.0 mph41.8 kmh 29.50 in999.0 mb 0.00 in0.0 mm 0.00 in/hr0.0 mm/hr 0.00 in0.0 mm
08:40 PM 35.2°F1.8°C 18.4°F-7.6°C 50% 2.0 mph WSW3.2 kmh WSW 23.0 mph37.0 kmh 29.50 in999.0 mb 0.00 in0.0 mm 0.00 in/hr0.0 mm/hr 0.00 in0.0 mm
08:45 PM 35.2°F1.8°C 18.4°F-7.6°C 50% 20.0 mph WSW32.2 kmh WSW 20.0 mph32.2 kmh 29.49 in998.6 mb 0.00 in0.0 mm 0.00 in/hr0.0 mm/hr 0.00 in0.0 mm
08:50 PM 35.3°F1.8°C 18.5°F-7.5°C 50% 14.0 mph W22.5 kmh W 27.0 mph43.5 kmh 29.48 in998.3 mb 0.00 in0.0 mm 0.00 in/hr0.0 mm/hr 0.00 in0.0 mm
08:55 PM 35.6°F2.0°C 18.3°F-7.6°C 49% 15.0 mph WSW24.1 kmh WSW 28.0 mph45.1 kmh 29.47 in998.0 mb 0.00 in0.0 mm 0.00 in/hr0.0 mm/hr 0.00 in0.0 mm
09:00 PM 35.5°F1.9°C 18.7°F-7.4°C 50% 3.0 mph W4.8 kmh W 27.0 mph43.5 kmh 29.48 in998.3 mb 0.00 in0.0 mm 0.00 in/hr0.0 mm/hr 0.00 in0.0 mm
09:05 PM 35.0°F1.7°C 18.7°F-7.4°C 51% 10.0 mph WSW16.1 kmh WSW 17.0 mph27.4 kmh 29.46 in997.6 mb 0.00 in0.0 mm 0.00 in/hr0.0 mm/hr 0.00 in0.0 mm
09:10 PM 35.0°F1.7°C 18.7°F-7.4°C 51% 16.0 mph WSW25.7 kmh WSW 20.0 mph32.2 kmh 29.45 in997.3 mb 0.00 in0.0 mm 0.00 in/hr0.0 mm/hr 0.00 in0.0 mm
09:15 PM 35.1°F1.7°C 18.8°F-7.3°C 51% 13.0 mph W20.9 kmh W 26.0 mph41.8 kmh 29.45 in997.3 mb 0.00 in0.0 mm 0.00 in/hr0.0 mm/hr 0.00 in0.0 mm
09:20 PM 35.0°F1.7°C 19.6°F-6.9°C 53% 23.0 mph SW37.0 kmh SW 23.0 mph37.0 kmh 29.44 in997.0 mb 0.00 in0.0 mm 0.00 in/hr0.0 mm/hr 0.00 in0.0 mm
09:25 PM 34.8°F1.6°C 19.8°F-6.8°C 54% 19.0 mph WSW30.6 kmh WSW 25.0 mph40.2 kmh 29.43 in996.6 mb 0.00 in0.0 mm 0.00 in/hr0.0 mm/hr 0.00 in0.0 mm
09:30 PM 34.7°F1.5°C 19.7°F-6.8°C 54% 7.0 mph WSW11.3 kmh WSW 25.0 mph40.2 kmh 29.45 in997.3 mb 0.00 in0.0 mm 0.00 in/hr0.0 mm/hr 0.00 in0.0 mm
09:35 PM 34.4°F1.3°C 19.4°F-7.0°C 54% 8.0 mph WSW12.9 kmh WSW 18.0 mph29.0 kmh 29.44 in997.0 mb 0.00 in0.0 mm 0.00 in/hr0.0 mm/hr 0.00 in0.0 mm
09:40 PM 34.4°F1.3°C 19.4°F-7.0°C 54% 3.0 mph SW4.8 kmh SW 17.0 mph27.4 kmh 29.44 in997.0 mb 0.00 in0.0 mm 0.00 in/hr0.0 mm/hr 0.00 in0.0 mm
09:45 PM 34.1°F1.2°C 19.2°F-7.1°C 54% 2.0 mph SW3.2 kmh SW 10.0 mph16.1 kmh 29.45 in997.3 mb 0.00 in0.0 mm 0.00 in/hr0.0 mm/hr 0.00 in0.0 mm
09:50 PM 33.9°F1.1°C 19.0°F-7.2°C 54% 1.0 mph S1.6 kmh S 6.0 mph9.7 kmh 29.46 in997.6 mb 0.00 in0.0 mm 0.00 in/hr0.0 mm/hr 0.00 in0.0 mm
09:55 PM 33.5°F0.8°C 19.5°F-6.9°C 56% 1.0 mph ESE1.6 kmh ESE 14.0 mph22.5 kmh 29.45 in997.3 mb 0.00 in0.0 mm 0.00 in/hr0.0 mm/hr 0.00 in0.0 mm
10:00 PM 32.8°F0.4°C 19.6°F-6.9°C 58% 7.0 mph SSE11.3 kmh SSE 13.0 mph20.9 kmh 29.47 in998.0 mb 0.00 in0.0 mm 0.00 in/hr0.0 mm/hr 0.00 in0.0 mm
10:05 PM 32.6°F0.3°C 19.4°F-7.0°C 58% 10.0 mph SSE16.1 kmh SSE 13.0 mph20.9 kmh 29.47 in998.0 mb 0.00 in0.0 mm 0.00 in/hr0.0 mm/hr 0.00 in0.0 mm
10:10 PM 33.3°F0.7°C 20.1°F-6.6°C 58% 14.0 mph SSW22.5 kmh SSW 19.0 mph30.6 kmh 29.47 in998.0 mb 0.00 in0.0 mm 0.00 in/hr0.0 mm/hr 0.00 in0.0 mm
10:15 PM 33.8°F1.0°C 20.6°F-6.3°C 58% 12.0 mph S19.3 kmh S 22.0 mph35.4 kmh 29.47 in998.0 mb 0.00 in0.0 mm 0.00 in/hr0.0 mm/hr 0.00 in0.0 mm
10:20 PM 33.7°F0.9°C 20.9°F-6.2°C 59% 4.0 mph S6.4 kmh S 13.0 mph20.9 kmh 29.47 in998.0 mb 0.00 in0.0 mm 0.00 in/hr0.0 mm/hr 0.00 in0.0 mm
10:25 PM 33.4°F0.8°C 21.4°F-5.9°C 61% 11.0 mph S17.7 kmh S 16.0 mph25.7 kmh 29.47 in998.0 mb 0.00 in0.0 mm 0.00 in/hr0.0 mm/hr 0.00 in0.0 mm
10:30 PM 33.0°F0.6°C 21.7°F-5.7°C 63% 9.0 mph SSW14.5 kmh SSW 17.0 mph27.4 kmh 29.47 in998.0 mb 0.00 in0.0 mm 0.00 in/hr0.0 mm/hr 0.00 in0.0 mm
10:35 PM 32.4°F0.2°C 23.0°F-5.0°C 68% 6.0 mph WSW9.7 kmh WSW 14.0 mph22.5 kmh 29.47 in998.0 mb 0.00 in0.0 mm 0.00 in/hr0.0 mm/hr 0.00 in0.0 mm
10:40 PM 31.6°F-0.2°C 23.2°F-4.9°C 71% 9.0 mph SW14.5 kmh SW 12.0 mph19.3 kmh 29.47 in998.0 mb 0.00 in0.0 mm 0.00 in/hr0.0 mm/hr 0.00 in0.0 mm
10:45 PM 31.2°F-0.4°C 22.9°F-5.1°C 71% 7.0 mph SW11.3 kmh SW 14.0 mph22.5 kmh 29.47 in998.0 mb 0.00 in0.0 mm 0.00 in/hr0.0 mm/hr 0.00 in0.0 mm
10:50 PM 31.2°F-0.4°C 22.9°F-5.1°C 71% 1.0 mph WSW1.6 kmh WSW 17.0 mph27.4 kmh 29.47 in998.0 mb 0.00 in0.0 mm 0.00 in/hr0.0 mm/hr 0.00 in0.0 mm
10:55 PM 31.4°F-0.3°C 22.4°F-5.3°C 69% 2.0 mph SW3.2 kmh SW 10.0 mph16.1 kmh 29.47 in998.0 mb 0.00 in0.0 mm 0.00 in/hr0.0 mm/hr 0.00 in0.0 mm
11:00 PM 31.6°F-0.2°C 21.9°F-5.6°C 67% 1.0 mph SSW1.6 kmh SSW 13.0 mph20.9 kmh 29.48 in998.3 mb 0.00 in0.0 mm 0.00 in/hr0.0 mm/hr 0.00 in0.0 mm
11:05 PM 31.8°F-0.1°C 22.1°F-5.5°C 67% 3.0 mph SE4.8 kmh SE 8.0 mph12.9 kmh 29.48 in998.3 mb 0.00 in0.0 mm 0.00 in/hr0.0 mm/hr 0.00 in0.0 mm
11:10 PM 31.8°F-0.1°C 22.1°F-5.5°C 67% 3.0 mph SE4.8 kmh SE 4.0 mph6.4 kmh 29.48 in998.3 mb 0.00 in0.0 mm 0.00 in/hr0.0 mm/hr 0.00 in0.0 mm
11:15 PM 31.7°F-0.2°C 22.3°F-5.4°C 68% 2.0 mph S3.2 kmh S 5.0 mph8.0 kmh 29.48 in998.3 mb 0.00 in0.0 mm 0.00 in/hr0.0 mm/hr 0.00 in0.0 mm
11:20 PM 31.7°F-0.2°C 22.3°F-5.4°C 68% 6.0 mph SW9.7 kmh SW 13.0 mph20.9 kmh 29.48 in998.3 mb 0.00 in0.0 mm 0.00 in/hr0.0 mm/hr 0.00 in0.0 mm
11:25 PM 31.7°F-0.2°C 22.3°F-5.4°C 68% 6.0 mph SW9.7 kmh SW 11.0 mph17.7 kmh 29.47 in998.0 mb 0.00 in0.0 mm 0.00 in/hr0.0 mm/hr 0.00 in0.0 mm
11:30 PM 31.7°F-0.2°C 22.3°F-5.4°C 68% 3.0 mph S4.8 kmh S 8.0 mph12.9 kmh 29.47 in998.0 mb 0.00 in0.0 mm 0.00 in/hr0.0 mm/hr 0.00 in0.0 mm
11:35 PM 31.6°F-0.2°C 22.2°F-5.4°C 68% 5.0 mph NW8.0 kmh NW 8.0 mph12.9 kmh 29.47 in998.0 mb 0.00 in0.0 mm 0.00 in/hr0.0 mm/hr 0.00 in0.0 mm
11:40 PM 31.2°F-0.4°C 22.9°F-5.1°C 71% 1.0 mph WNW1.6 kmh WNW 10.0 mph16.1 kmh 29.48 in998.3 mb 0.00 in0.0 mm 0.00 in/hr0.0 mm/hr 0.00 in0.0 mm
11:45 PM 30.8°F-0.7°C 22.8°F-5.1°C 72% 2.0 mph WSW3.2 kmh WSW 3.0 mph4.8 kmh 29.48 in998.3 mb 0.00 in0.0 mm 0.00 in/hr0.0 mm/hr 0.00 in0.0 mm
11:50 PM 30.5°F-0.8°C 22.8°F-5.1°C 73% 4.0 mph NW6.4 kmh NW 7.0 mph11.3 kmh 29.48 in998.3 mb 0.00 in0.0 mm 0.00 in/hr0.0 mm/hr 0.00 in0.0 mm
11:55 PM 30.3°F-0.9°C 22.7°F-5.2°C 73% 6.0 mph SW9.7 kmh SW 11.0 mph17.7 kmh 29.48 in998.3 mb 0.00 in0.0 mm 0.00 in/hr0.0 mm/hr 0.00 in0.0 mm